sensor_id;sensor_type;location;lat;lon;timestamp;temperature;humidity
54202;DHT22;40108;53.152;5.844;2023-07-31T00:00:12;16.80;94.50
54202;DHT22;40108;53.152;5.844;2023-07-31T00:02:38;16.80;94.40
54202;DHT22;40108;53.152;5.844;2023-07-31T00:05:04;16.80;94.50
54202;DHT22;40108;53.152;5.844;2023-07-31T00:07:31;16.70;94.50
54202;DHT22;40108;53.152;5.844;2023-07-31T00:09:57;16.70;94.60
54202;DHT22;40108;53.152;5.844;2023-07-31T00:12:23;16.70;94.60
54202;DHT22;40108;53.152;5.844;2023-07-31T00:14:49;16.70;94.60
54202;DHT22;40108;53.152;5.844;2023-07-31T00:17:16;16.70;94.70
54202;DHT22;40108;53.152;5.844;2023-07-31T00:19:42;16.80;94.80
54202;DHT22;40108;53.152;5.844;2023-07-31T00:22:07;16.80;94.80
54202;DHT22;40108;53.152;5.844;2023-07-31T00:24:33;16.80;94.90
54202;DHT22;40108;53.152;5.844;2023-07-31T00:26:59;16.80;94.90
54202;DHT22;40108;53.152;5.844;2023-07-31T00:29:24;16.90;95.10
54202;DHT22;40108;53.152;5.844;2023-07-31T00:31:50;16.90;95.20
54202;DHT22;40108;53.152;5.844;2023-07-31T00:34:16;16.90;95.20
54202;DHT22;40108;53.152;5.844;2023-07-31T00:36:41;16.90;95.30
54202;DHT22;40108;53.152;5.844;2023-07-31T00:39:07;16.90;95.50
54202;DHT22;40108;53.152;5.844;2023-07-31T00:41:33;16.80;95.50
54202;DHT22;40108;53.152;5.844;2023-07-31T00:43:58;16.80;95.50
54202;DHT22;40108;53.152;5.844;2023-07-31T00:46:24;16.80;95.60
54202;DHT22;40108;53.152;5.844;2023-07-31T00:48:50;16.80;95.50
54202;DHT22;40108;53.152;5.844;2023-07-31T00:51:16;16.80;95.60
54202;DHT22;40108;53.152;5.844;2023-07-31T00:53:42;16.80;95.50
54202;DHT22;40108;53.152;5.844;2023-07-31T00:56:08;16.80;95.50
54202;DHT22;40108;53.152;5.844;2023-07-31T00:58:35;16.70;95.50
54202;DHT22;40108;53.152;5.844;2023-07-31T01:01:01;16.70;95.40
54202;DHT22;40108;53.152;5.844;2023-07-31T01:03:26;16.70;95.50
54202;DHT22;40108;53.152;5.844;2023-07-31T01:11:22;16.60;95.40
54202;DHT22;40108;53.152;5.844;2023-07-31T01:13:51;16.60;95.50
54202;DHT22;40108;53.152;5.844;2023-07-31T01:16:17;16.60;95.40
54202;DHT22;40108;53.152;5.844;2023-07-31T01:18:42;16.60;95.40
54202;DHT22;40108;53.152;5.844;2023-07-31T01:21:41;16.60;95.30
54202;DHT22;40108;53.152;5.844;2023-07-31T01:26:58;16.60;95.40
54202;DHT22;40108;53.152;5.844;2023-07-31T01:29:38;16.50;95.30
54202;DHT22;40108;53.152;5.844;2023-07-31T01:32:07;16.50;95.30
54202;DHT22;40108;53.152;5.844;2023-07-31T01:34:35;16.40;95.40
54202;DHT22;40108;53.152;5.844;2023-07-31T01:37:02;16.40;95.40
54202;DHT22;40108;53.152;5.844;2023-07-31T01:39:28;16.40;95.40
54202;DHT22;40108;53.152;5.844;2023-07-31T01:41:54;16.40;95.40
54202;DHT22;40108;53.152;5.844;2023-07-31T01:44:20;16.40;95.50
54202;DHT22;40108;53.152;5.844;2023-07-31T01:46:45;16.40;95.40
54202;DHT22;40108;53.152;5.844;2023-07-31T01:49:11;16.40;95.40
54202;DHT22;40108;53.152;5.844;2023-07-31T01:51:37;16.40;95.40
54202;DHT22;40108;53.152;5.844;2023-07-31T01:54:02;16.30;95.50
54202;DHT22;40108;53.152;5.844;2023-07-31T01:56:28;16.30;95.40
54202;DHT22;40108;53.152;5.844;2023-07-31T01:58:54;16.40;95.40
54202;DHT22;40108;53.152;5.844;2023-07-31T02:01:20;16.30;95.40
54202;DHT22;40108;53.152;5.844;2023-07-31T02:03:45;16.30;95.40
54202;DHT22;40108;53.152;5.844;2023-07-31T02:06:11;16.30;95.40
54202;DHT22;40108;53.152;5.844;2023-07-31T02:08:37;16.30;95.50
54202;DHT22;40108;53.152;5.844;2023-07-31T02:11:04;16.30;95.50
54202;DHT22;40108;53.152;5.844;2023-07-31T02:13:30;16.30;95.40
54202;DHT22;40108;53.152;5.844;2023-07-31T02:15:55;16.30;95.50
54202;DHT22;40108;53.152;5.844;2023-07-31T02:18:21;16.30;95.50
54202;DHT22;40108;53.152;5.844;2023-07-31T02:20:51;16.30;95.50
54202;DHT22;40108;53.152;5.844;2023-07-31T02:23:20;16.20;95.50
54202;DHT22;40108;53.152;5.844;2023-07-31T02:25:46;16.30;95.60
54202;DHT22;40108;53.152;5.844;2023-07-31T02:28:12;16.30;95.60
54202;DHT22;40108;53.152;5.844;2023-07-31T02:30:38;16.30;95.60
54202;DHT22;40108;53.152;5.844;2023-07-31T02:33:05;16.20;95.60
54202;DHT22;40108;53.152;5.844;2023-07-31T02:35:30;16.20;95.70
54202;DHT22;40108;53.152;5.844;2023-07-31T02:37:56;16.20;95.80
54202;DHT22;40108;53.152;5.844;2023-07-31T02:40:22;16.30;95.80
54202;DHT22;40108;53.152;5.844;2023-07-31T02:42:48;16.20;95.80
54202;DHT22;40108;53.152;5.844;2023-07-31T02:45:14;16.20;95.90
54202;DHT22;40108;53.152;5.844;2023-07-31T02:47:40;16.20;95.90
54202;DHT22;40108;53.152;5.844;2023-07-31T02:50:06;16.20;96.00
54202;DHT22;40108;53.152;5.844;2023-07-31T02:52:32;16.20;96.00
54202;DHT22;40108;53.152;5.844;2023-07-31T02:54:58;16.10;96.10
54202;DHT22;40108;53.152;5.844;2023-07-31T02:57:24;16.20;96.20
54202;DHT22;40108;53.152;5.844;2023-07-31T02:59:49;16.20;96.20
54202;DHT22;40108;53.152;5.844;2023-07-31T03:02:15;16.10;96.20
54202;DHT22;40108;53.152;5.844;2023-07-31T03:04:41;16.10;96.30
54202;DHT22;40108;53.152;5.844;2023-07-31T03:07:06;16.10;96.20
54202;DHT22;40108;53.152;5.844;2023-07-31T03:09:32;16.00;96.30
54202;DHT22;40108;53.152;5.844;2023-07-31T03:11:58;16.00;96.30
54202;DHT22;40108;53.152;5.844;2023-07-31T03:14:24;16.00;96.40
54202;DHT22;40108;53.152;5.844;2023-07-31T03:16:52;16.10;96.40
54202;DHT22;40108;53.152;5.844;2023-07-31T03:19:17;16.00;96.30
54202;DHT22;40108;53.152;5.844;2023-07-31T03:21:43;16.00;96.40
54202;DHT22;40108;53.152;5.844;2023-07-31T03:24:09;16.00;96.40
54202;DHT22;40108;53.152;5.844;2023-07-31T03:26:35;15.90;96.40
54202;DHT22;40108;53.152;5.844;2023-07-31T03:29:02;15.90;96.50
54202;DHT22;40108;53.152;5.844;2023-07-31T03:31:28;15.90;96.70
54202;DHT22;40108;53.152;5.844;2023-07-31T03:33:53;15.90;96.70
54202;DHT22;40108;53.152;5.844;2023-07-31T03:36:19;15.90;96.70
54202;DHT22;40108;53.152;5.844;2023-07-31T03:38:46;15.90;96.70
54202;DHT22;40108;53.152;5.844;2023-07-31T03:41:12;16.00;96.80
54202;DHT22;40108;53.152;5.844;2023-07-31T03:43:37;15.90;96.80
54202;DHT22;40108;53.152;5.844;2023-07-31T03:46:03;16.00;96.80
54202;DHT22;40108;53.152;5.844;2023-07-31T03:48:29;16.00;96.80
54202;DHT22;40108;53.152;5.844;2023-07-31T03:50:55;16.00;96.80
54202;DHT22;40108;53.152;5.844;2023-07-31T03:53:21;16.00;96.90
54202;DHT22;40108;53.152;5.844;2023-07-31T03:55:47;16.10;96.80
54202;DHT22;40108;53.152;5.844;2023-07-31T03:58:12;16.10;96.80
54202;DHT22;40108;53.152;5.844;2023-07-31T04:00:40;16.10;96.80
54202;DHT22;40108;53.152;5.844;2023-07-31T04:03:05;16.10;96.80
54202;DHT22;40108;53.152;5.844;2023-07-31T04:05:32;16.10;96.80
54202;DHT22;40108;53.152;5.844;2023-07-31T04:07:58;16.10;96.80
54202;DHT22;40108;53.152;5.844;2023-07-31T04:10:24;16.10;96.80
54202;DHT22;40108;53.152;5.844;2023-07-31T04:12:49;16.10;96.80
54202;DHT22;40108;53.152;5.844;2023-07-31T04:15:15;16.10;96.80
54202;DHT22;40108;53.152;5.844;2023-07-31T04:17:42;16.10;96.80
54202;DHT22;40108;53.152;5.844;2023-07-31T04:20:08;16.10;96.90
54202;DHT22;40108;53.152;5.844;2023-07-31T04:22:34;16.10;96.80
54202;DHT22;40108;53.152;5.844;2023-07-31T04:24:59;16.10;96.80
54202;DHT22;40108;53.152;5.844;2023-07-31T04:27:25;16.10;96.90
54202;DHT22;40108;53.152;5.844;2023-07-31T04:29:51;16.20;96.90
54202;DHT22;40108;53.152;5.844;2023-07-31T04:32:17;16.20;97.00
54202;DHT22;40108;53.152;5.844;2023-07-31T04:34:43;16.20;96.80
54202;DHT22;40108;53.152;5.844;2023-07-31T04:37:09;16.30;97.00
54202;DHT22;40108;53.152;5.844;2023-07-31T04:39:35;16.30;97.00
54202;DHT22;40108;53.152;5.844;2023-07-31T04:42:00;16.40;97.00
54202;DHT22;40108;53.152;5.844;2023-07-31T04:44:26;16.40;97.00
54202;DHT22;40108;53.152;5.844;2023-07-31T04:46:52;16.40;97.00
54202;DHT22;40108;53.152;5.844;2023-07-31T04:49:17;16.30;97.00
54202;DHT22;40108;53.152;5.844;2023-07-31T04:51:44;16.30;97.10
54202;DHT22;40108;53.152;5.844;2023-07-31T04:54:10;16.30;97.10
54202;DHT22;40108;53.152;5.844;2023-07-31T04:56:38;16.30;97.10
54202;DHT22;40108;53.152;5.844;2023-07-31T04:59:03;16.30;97.10
54202;DHT22;40108;53.152;5.844;2023-07-31T05:01:29;16.30;97.20
54202;DHT22;40108;53.152;5.844;2023-07-31T05:03:55;16.30;97.20
54202;DHT22;40108;53.152;5.844;2023-07-31T05:06:20;16.30;97.20
54202;DHT22;40108;53.152;5.844;2023-07-31T05:08:46;16.30;97.20
54202;DHT22;40108;53.152;5.844;2023-07-31T05:11:12;16.30;97.30
54202;DHT22;40108;53.152;5.844;2023-07-31T05:13:38;16.30;97.30
54202;DHT22;40108;53.152;5.844;2023-07-31T05:16:03;16.30;97.30
54202;DHT22;40108;53.152;5.844;2023-07-31T05:18:29;16.30;97.40
54202;DHT22;40108;53.152;5.844;2023-07-31T05:20:55;16.30;97.40
54202;DHT22;40108;53.152;5.844;2023-07-31T05:23:21;16.40;97.50
54202;DHT22;40108;53.152;5.844;2023-07-31T05:25:47;16.40;97.50
54202;DHT22;40108;53.152;5.844;2023-07-31T05:28:12;16.40;97.50
54202;DHT22;40108;53.152;5.844;2023-07-31T05:30:38;16.40;97.50
54202;DHT22;40108;53.152;5.844;2023-07-31T05:33:04;16.50;97.60
54202;DHT22;40108;53.152;5.844;2023-07-31T05:35:30;16.50;97.60
54202;DHT22;40108;53.152;5.844;2023-07-31T05:37:55;16.60;97.60
54202;DHT22;40108;53.152;5.844;2023-07-31T05:40:21;16.50;97.60
54202;DHT22;40108;53.152;5.844;2023-07-31T05:42:47;16.60;97.50
54202;DHT22;40108;53.152;5.844;2023-07-31T05:45:13;16.60;97.60
54202;DHT22;40108;53.152;5.844;2023-07-31T05:47:39;16.60;97.60
54202;DHT22;40108;53.152;5.844;2023-07-31T05:50:05;16.60;97.60
54202;DHT22;40108;53.152;5.844;2023-07-31T05:52:31;16.60;97.60
54202;DHT22;40108;53.152;5.844;2023-07-31T05:54:57;16.60;97.60
54202;DHT22;40108;53.152;5.844;2023-07-31T05:57:22;16.60;97.60
54202;DHT22;40108;53.152;5.844;2023-07-31T05:59:48;16.60;97.60
54202;DHT22;40108;53.152;5.844;2023-07-31T06:02:14;16.60;97.70
54202;DHT22;40108;53.152;5.844;2023-07-31T06:04:40;16.60;97.70
54202;DHT22;40108;53.152;5.844;2023-07-31T06:07:05;16.70;97.60
54202;DHT22;40108;53.152;5.844;2023-07-31T06:09:31;16.60;97.70
54202;DHT22;40108;53.152;5.844;2023-07-31T06:11:57;16.70;97.70
54202;DHT22;40108;53.152;5.844;2023-07-31T06:14:23;16.70;97.70
54202;DHT22;40108;53.152;5.844;2023-07-31T06:16:48;16.70;97.80
54202;DHT22;40108;53.152;5.844;2023-07-31T06:19:14;16.80;97.80
54202;DHT22;40108;53.152;5.844;2023-07-31T06:21:40;16.90;97.80
54202;DHT22;40108;53.152;5.844;2023-07-31T06:24:08;16.90;97.90
54202;DHT22;40108;53.152;5.844;2023-07-31T06:26:33;17.00;97.80
54202;DHT22;40108;53.152;5.844;2023-07-31T06:28:59;17.10;97.80
54202;DHT22;40108;53.152;5.844;2023-07-31T06:31:25;17.10;97.80
54202;DHT22;40108;53.152;5.844;2023-07-31T06:33:51;17.10;97.80
54202;DHT22;40108;53.152;5.844;2023-07-31T06:36:18;17.10;97.70
54202;DHT22;40108;53.152;5.844;2023-07-31T06:38:43;17.10;97.60
54202;DHT22;40108;53.152;5.844;2023-07-31T06:41:09;17.10;97.60
54202;DHT22;40108;53.152;5.844;2023-07-31T06:43:36;17.10;97.60
54202;DHT22;40108;53.152;5.844;2023-07-31T06:46:08;17.10;97.60
54202;DHT22;40108;53.152;5.844;2023-07-31T06:48:35;17.00;97.50
54202;DHT22;40108;53.152;5.844;2023-07-31T06:51:03;17.00;97.50
54202;DHT22;40108;53.152;5.844;2023-07-31T06:53:29;17.00;97.50
54202;DHT22;40108;53.152;5.844;2023-07-31T06:55:55;17.10;97.50
54202;DHT22;40108;53.152;5.844;2023-07-31T06:58:20;17.10;97.60
54202;DHT22;40108;53.152;5.844;2023-07-31T07:00:46;17.10;97.60
54202;DHT22;40108;53.152;5.844;2023-07-31T07:03:14;17.20;97.60
54202;DHT22;40108;53.152;5.844;2023-07-31T07:05:40;17.10;97.60
54202;DHT22;40108;53.152;5.844;2023-07-31T07:08:06;17.20;97.60
54202;DHT22;40108;53.152;5.844;2023-07-31T07:10:32;17.30;97.60
54202;DHT22;40108;53.152;5.844;2023-07-31T07:12:57;17.30;97.60
54202;DHT22;40108;53.152;5.844;2023-07-31T07:15:23;17.30;97.60
54202;DHT22;40108;53.152;5.844;2023-07-31T07:17:49;17.30;97.50
54202;DHT22;40108;53.152;5.844;2023-07-31T07:20:15;17.20;97.50
54202;DHT22;40108;53.152;5.844;2023-07-31T07:22:42;17.30;97.50
54202;DHT22;40108;53.152;5.844;2023-07-31T07:25:10;17.30;97.50
54202;DHT22;40108;53.152;5.844;2023-07-31T07:27:36;17.30;97.50
54202;DHT22;40108;53.152;5.844;2023-07-31T07:30:02;17.40;97.50
54202;DHT22;40108;53.152;5.844;2023-07-31T07:32:28;17.40;97.60
54202;DHT22;40108;53.152;5.844;2023-07-31T07:34:54;17.40;97.60
54202;DHT22;40108;53.152;5.844;2023-07-31T07:37:20;17.50;97.60
54202;DHT22;40108;53.152;5.844;2023-07-31T07:39:46;17.40;97.70
54202;DHT22;40108;53.152;5.844;2023-07-31T07:42:12;17.50;97.70
54202;DHT22;40108;53.152;5.844;2023-07-31T07:44:38;17.60;97.70
54202;DHT22;40108;53.152;5.844;2023-07-31T07:47:03;17.50;97.80
54202;DHT22;40108;53.152;5.844;2023-07-31T07:49:32;17.50;97.80
54202;DHT22;40108;53.152;5.844;2023-07-31T07:51:58;17.50;97.80
54202;DHT22;40108;53.152;5.844;2023-07-31T07:54:24;17.60;97.90
54202;DHT22;40108;53.152;5.844;2023-07-31T07:56:50;17.60;98.00
54202;DHT22;40108;53.152;5.844;2023-07-31T07:59:16;17.60;98.10
54202;DHT22;40108;53.152;5.844;2023-07-31T08:01:42;17.70;98.10
54202;DHT22;40108;53.152;5.844;2023-07-31T08:04:08;17.80;98.20
54202;DHT22;40108;53.152;5.844;2023-07-31T08:06:33;17.80;98.10
54202;DHT22;40108;53.152;5.844;2023-07-31T08:08:59;17.80;98.10
54202;DHT22;40108;53.152;5.844;2023-07-31T08:11:32;17.90;98.10
54202;DHT22;40108;53.152;5.844;2023-07-31T08:14:03;17.90;98.10
54202;DHT22;40108;53.152;5.844;2023-07-31T08:16:38;17.90;98.00
54202;DHT22;40108;53.152;5.844;2023-07-31T08:19:04;17.80;97.90
54202;DHT22;40108;53.152;5.844;2023-07-31T08:21:31;17.80;98.00
54202;DHT22;40108;53.152;5.844;2023-07-31T08:23:57;17.90;98.00
54202;DHT22;40108;53.152;5.844;2023-07-31T08:26:23;17.90;98.00
54202;DHT22;40108;53.152;5.844;2023-07-31T08:28:48;17.90;98.00
54202;DHT22;40108;53.152;5.844;2023-07-31T08:31:14;18.00;97.90
54202;DHT22;40108;53.152;5.844;2023-07-31T08:33:40;17.90;97.90
54202;DHT22;40108;53.152;5.844;2023-07-31T08:36:06;18.00;97.90
54202;DHT22;40108;53.152;5.844;2023-07-31T08:38:32;18.00;98.00
54202;DHT22;40108;53.152;5.844;2023-07-31T08:40:58;18.10;97.90
54202;DHT22;40108;53.152;5.844;2023-07-31T08:43:26;18.20;98.00
54202;DHT22;40108;53.152;5.844;2023-07-31T08:45:53;18.10;97.90
54202;DHT22;40108;53.152;5.844;2023-07-31T08:48:21;18.30;97.90
54202;DHT22;40108;53.152;5.844;2023-07-31T08:50:47;18.30;97.90
54202;DHT22;40108;53.152;5.844;2023-07-31T08:53:13;18.40;97.90
54202;DHT22;40108;53.152;5.844;2023-07-31T08:55:40;18.40;97.80
54202;DHT22;40108;53.152;5.844;2023-07-31T08:58:06;18.40;97.70
54202;DHT22;40108;53.152;5.844;2023-07-31T09:00:32;18.40;97.70
54202;DHT22;40108;53.152;5.844;2023-07-31T09:03:08;18.50;97.70
54202;DHT22;40108;53.152;5.844;2023-07-31T09:05:36;18.50;97.60
54202;DHT22;40108;53.152;5.844;2023-07-31T09:08:05;18.50;97.60
54202;DHT22;40108;53.152;5.844;2023-07-31T09:10:33;18.50;97.60
54202;DHT22;40108;53.152;5.844;2023-07-31T09:12:59;18.60;97.50
54202;DHT22;40108;53.152;5.844;2023-07-31T09:15:25;18.60;97.50
54202;DHT22;40108;53.152;5.844;2023-07-31T09:17:59;18.50;97.40
54202;DHT22;40108;53.152;5.844;2023-07-31T09:20:26;18.50;97.40
54202;DHT22;40108;53.152;5.844;2023-07-31T09:22:52;18.50;97.40
54202;DHT22;40108;53.152;5.844;2023-07-31T09:25:25;18.50;97.50
54202;DHT22;40108;53.152;5.844;2023-07-31T09:28:00;18.60;97.50
54202;DHT22;40108;53.152;5.844;2023-07-31T09:30:27;18.60;97.40
54202;DHT22;40108;53.152;5.844;2023-07-31T09:33:01;18.60;97.40
54202;DHT22;40108;53.152;5.844;2023-07-31T09:35:29;18.60;97.40
54202;DHT22;40108;53.152;5.844;2023-07-31T09:37:58;18.70;97.50
54202;DHT22;40108;53.152;5.844;2023-07-31T09:40:28;18.80;97.40
54202;DHT22;40108;53.152;5.844;2023-07-31T09:42:59;18.90;97.40
54202;DHT22;40108;53.152;5.844;2023-07-31T09:45:25;18.90;97.40
54202;DHT22;40108;53.152;5.844;2023-07-31T09:47:52;18.90;97.30
54202;DHT22;40108;53.152;5.844;2023-07-31T09:50:20;18.90;97.20
54202;DHT22;40108;53.152;5.844;2023-07-31T09:52:46;18.80;97.10
54202;DHT22;40108;53.152;5.844;2023-07-31T09:55:12;18.70;97.00
54202;DHT22;40108;53.152;5.844;2023-07-31T09:57:40;18.70;96.90
54202;DHT22;40108;53.152;5.844;2023-07-31T10:00:10;18.60;97.00
54202;DHT22;40108;53.152;5.844;2023-07-31T10:02:37;18.60;97.00
54202;DHT22;40108;53.152;5.844;2023-07-31T10:05:05;18.70;97.10
54202;DHT22;40108;53.152;5.844;2023-07-31T10:07:36;18.80;97.00
54202;DHT22;40108;53.152;5.844;2023-07-31T10:10:04;18.90;97.20
54202;DHT22;40108;53.152;5.844;2023-07-31T10:12:32;19.10;97.20
54202;DHT22;40108;53.152;5.844;2023-07-31T10:15:00;19.30;97.10
54202;DHT22;40108;53.152;5.844;2023-07-31T10:17:26;19.40;97.00
54202;DHT22;40108;53.152;5.844;2023-07-31T10:19:54;19.40;96.80
54202;DHT22;40108;53.152;5.844;2023-07-31T10:22:22;19.40;96.80
54202;DHT22;40108;53.152;5.844;2023-07-31T10:24:48;19.40;96.60
54202;DHT22;40108;53.152;5.844;2023-07-31T10:27:15;19.40;96.40
54202;DHT22;40108;53.152;5.844;2023-07-31T10:29:43;19.40;96.30
54202;DHT22;40108;53.152;5.844;2023-07-31T10:32:13;19.50;96.10
54202;DHT22;40108;53.152;5.844;2023-07-31T10:34:42;19.40;96.00
54202;DHT22;40108;53.152;5.844;2023-07-31T10:37:28;19.30;96.00
54202;DHT22;40108;53.152;5.844;2023-07-31T10:40:06;19.30;95.80
54202;DHT22;40108;53.152;5.844;2023-07-31T10:42:38;19.10;95.40
54202;DHT22;40108;53.152;5.844;2023-07-31T10:45:11;19.10;95.20
54202;DHT22;40108;53.152;5.844;2023-07-31T10:47:43;18.90;95.40
54202;DHT22;40108;53.152;5.844;2023-07-31T10:50:22;18.90;95.50
54202;DHT22;40108;53.152;5.844;2023-07-31T10:52:52;18.90;95.70
54202;DHT22;40108;53.152;5.844;2023-07-31T10:55:29;18.80;95.80
54202;DHT22;40108;53.152;5.844;2023-07-31T10:57:57;18.80;95.70
54202;DHT22;40108;53.152;5.844;2023-07-31T11:00:30;18.80;95.60
54202;DHT22;40108;53.152;5.844;2023-07-31T11:03:08;18.70;95.60
54202;DHT22;40108;53.152;5.844;2023-07-31T11:09:56;18.80;95.80
54202;DHT22;40108;53.152;5.844;2023-07-31T11:46:16;19.50;96.30
54202;DHT22;40108;53.152;5.844;2023-07-31T11:48:43;19.40;96.10
54202;DHT22;40108;53.152;5.844;2023-07-31T11:51:10;19.40;95.90
54202;DHT22;40108;53.152;5.844;2023-07-31T11:53:50;19.40;95.90
54202;DHT22;40108;53.152;5.844;2023-07-31T11:56:18;19.30;95.80
54202;DHT22;40108;53.152;5.844;2023-07-31T11:58:51;19.30;95.80
54202;DHT22;40108;53.152;5.844;2023-07-31T12:01:22;19.40;95.80
54202;DHT22;40108;53.152;5.844;2023-07-31T12:03:50;19.50;95.90
54202;DHT22;40108;53.152;5.844;2023-07-31T12:06:16;19.50;95.80
54202;DHT22;40108;53.152;5.844;2023-07-31T12:08:42;19.50;95.60
54202;DHT22;40108;53.152;5.844;2023-07-31T12:11:09;19.50;95.30
54202;DHT22;40108;53.152;5.844;2023-07-31T12:13:43;19.50;95.10
54202;DHT22;40108;53.152;5.844;2023-07-31T12:16:08;19.50;94.90
54202;DHT22;40108;53.152;5.844;2023-07-31T12:18:36;19.50;94.80
54202;DHT22;40108;53.152;5.844;2023-07-31T12:21:05;19.60;94.70
54202;DHT22;40108;53.152;5.844;2023-07-31T12:23:32;19.60;94.70
54202;DHT22;40108;53.152;5.844;2023-07-31T12:26:13;19.60;94.40
54202;DHT22;40108;53.152;5.844;2023-07-31T12:28:47;19.60;94.30
54202;DHT22;40108;53.152;5.844;2023-07-31T12:31:15;19.50;94.00
54202;DHT22;40108;53.152;5.844;2023-07-31T12:33:43;19.40;94.10
54202;DHT22;40108;53.152;5.844;2023-07-31T12:36:11;19.30;94.20
54202;DHT22;40108;53.152;5.844;2023-07-31T12:38:38;19.30;94.40
54202;DHT22;40108;53.152;5.844;2023-07-31T12:41:04;19.30;94.70
54202;DHT22;40108;53.152;5.844;2023-07-31T12:43:30;19.40;94.80
54202;DHT22;40108;53.152;5.844;2023-07-31T12:45:56;19.40;94.70
54202;DHT22;40108;53.152;5.844;2023-07-31T12:48:22;19.40;94.70
54202;DHT22;40108;53.152;5.844;2023-07-31T12:50:48;19.40;94.70
54202;DHT22;40108;53.152;5.844;2023-07-31T12:53:15;19.40;94.70
54202;DHT22;40108;53.152;5.844;2023-07-31T12:55:41;19.50;94.70
54202;DHT22;40108;53.152;5.844;2023-07-31T12:58:07;19.50;94.50
54202;DHT22;40108;53.152;5.844;2023-07-31T13:00:33;19.50;94.30
54202;DHT22;40108;53.152;5.844;2023-07-31T13:02:59;19.50;94.20
54202;DHT22;40108;53.152;5.844;2023-07-31T13:05:26;19.60;94.00
54202;DHT22;40108;53.152;5.844;2023-07-31T13:07:52;19.60;93.60
54202;DHT22;40108;53.152;5.844;2023-07-31T13:10:18;19.50;93.60
54202;DHT22;40108;53.152;5.844;2023-07-31T13:12:43;19.60;93.50
54202;DHT22;40108;53.152;5.844;2023-07-31T13:15:09;19.60;93.60
54202;DHT22;40108;53.152;5.844;2023-07-31T13:17:35;19.60;93.60
54202;DHT22;40108;53.152;5.844;2023-07-31T13:20:02;19.60;93.30
54202;DHT22;40108;53.152;5.844;2023-07-31T13:22:29;19.70;93.50
54202;DHT22;40108;53.152;5.844;2023-07-31T13:24:55;19.70;93.50
54202;DHT22;40108;53.152;5.844;2023-07-31T13:27:21;19.70;93.10
54202;DHT22;40108;53.152;5.844;2023-07-31T13:29:48;19.60;93.10
54202;DHT22;40108;53.152;5.844;2023-07-31T13:32:15;19.70;93.10
54202;DHT22;40108;53.152;5.844;2023-07-31T13:34:41;19.70;93.30
54202;DHT22;40108;53.152;5.844;2023-07-31T13:37:07;19.80;93.20
54202;DHT22;40108;53.152;5.844;2023-07-31T13:39:32;19.80;92.90
54202;DHT22;40108;53.152;5.844;2023-07-31T13:41:59;19.70;92.60
54202;DHT22;40108;53.152;5.844;2023-07-31T13:44:25;19.80;92.70
54202;DHT22;40108;53.152;5.844;2023-07-31T13:46:51;19.80;92.50
54202;DHT22;40108;53.152;5.844;2023-07-31T13:49:17;19.70;92.20
54202;DHT22;40108;53.152;5.844;2023-07-31T13:51:42;19.70;92.30
54202;DHT22;40108;53.152;5.844;2023-07-31T13:54:09;19.70;92.50
54202;DHT22;40108;53.152;5.844;2023-07-31T13:56:37;19.60;92.40
54202;DHT22;40108;53.152;5.844;2023-07-31T13:59:04;19.60;92.50
54202;DHT22;40108;53.152;5.844;2023-07-31T14:01:31;19.60;92.70
54202;DHT22;40108;53.152;5.844;2023-07-31T14:03:56;19.60;92.80
54202;DHT22;40108;53.152;5.844;2023-07-31T14:06:22;19.60;92.80
54202;DHT22;40108;53.152;5.844;2023-07-31T14:08:48;19.60;92.70
54202;DHT22;40108;53.152;5.844;2023-07-31T14:11:14;19.60;92.70
54202;DHT22;40108;53.152;5.844;2023-07-31T14:13:39;19.60;92.60
54202;DHT22;40108;53.152;5.844;2023-07-31T14:16:05;19.60;92.70
54202;DHT22;40108;53.152;5.844;2023-07-31T14:18:32;19.70;92.70
54202;DHT22;40108;53.152;5.844;2023-07-31T14:20:57;19.60;92.40
54202;DHT22;40108;53.152;5.844;2023-07-31T14:23:23;19.60;92.30
54202;DHT22;40108;53.152;5.844;2023-07-31T14:25:49;19.60;92.20
54202;DHT22;40108;53.152;5.844;2023-07-31T14:28:15;19.50;92.00
54202;DHT22;40108;53.152;5.844;2023-07-31T14:30:41;19.50;92.10
54202;DHT22;40108;53.152;5.844;2023-07-31T14:33:07;19.50;92.20
54202;DHT22;40108;53.152;5.844;2023-07-31T14:35:34;19.50;92.30
54202;DHT22;40108;53.152;5.844;2023-07-31T14:38:00;19.40;92.20
54202;DHT22;40108;53.152;5.844;2023-07-31T14:40:26;19.40;92.10
54202;DHT22;40108;53.152;5.844;2023-07-31T14:42:52;19.30;92.20
54202;DHT22;40108;53.152;5.844;2023-07-31T14:45:17;19.30;92.20
54202;DHT22;40108;53.152;5.844;2023-07-31T14:47:43;19.30;92.40
54202;DHT22;40108;53.152;5.844;2023-07-31T14:50:09;19.30;92.50
54202;DHT22;40108;53.152;5.844;2023-07-31T14:52:35;19.30;92.50
54202;DHT22;40108;53.152;5.844;2023-07-31T14:55:01;19.20;92.40
54202;DHT22;40108;53.152;5.844;2023-07-31T14:57:27;19.30;92.50
54202;DHT22;40108;53.152;5.844;2023-07-31T14:59:52;19.20;92.50
54202;DHT22;40108;53.152;5.844;2023-07-31T15:02:18;19.20;92.60
54202;DHT22;40108;53.152;5.844;2023-07-31T15:04:44;19.20;92.60
54202;DHT22;40108;53.152;5.844;2023-07-31T15:07:09;19.20;92.50
54202;DHT22;40108;53.152;5.844;2023-07-31T15:09:35;19.10;92.50
54202;DHT22;40108;53.152;5.844;2023-07-31T15:12:01;19.20;92.70
54202;DHT22;40108;53.152;5.844;2023-07-31T15:14:27;19.20;92.80
54202;DHT22;40108;53.152;5.844;2023-07-31T15:16:56;19.10;92.90
54202;DHT22;40108;53.152;5.844;2023-07-31T15:19:22;19.10;93.10
54202;DHT22;40108;53.152;5.844;2023-07-31T15:21:49;19.10;93.30
54202;DHT22;40108;53.152;5.844;2023-07-31T15:24:15;19.10;93.40
54202;DHT22;40108;53.152;5.844;2023-07-31T15:26:40;19.10;93.40
54202;DHT22;40108;53.152;5.844;2023-07-31T15:29:08;19.10;93.60
54202;DHT22;40108;53.152;5.844;2023-07-31T15:31:45;19.10;93.60
54202;DHT22;40108;53.152;5.844;2023-07-31T15:34:11;19.10;93.60
54202;DHT22;40108;53.152;5.844;2023-07-31T15:36:37;19.10;93.60
54202;DHT22;40108;53.152;5.844;2023-07-31T15:39:03;19.10;93.50
54202;DHT22;40108;53.152;5.844;2023-07-31T15:41:29;19.10;93.50
54202;DHT22;40108;53.152;5.844;2023-07-31T15:43:55;19.10;93.60
54202;DHT22;40108;53.152;5.844;2023-07-31T15:46:21;19.10;93.60
54202;DHT22;40108;53.152;5.844;2023-07-31T15:48:47;19.10;93.60
54202;DHT22;40108;53.152;5.844;2023-07-31T15:51:13;19.20;93.70
54202;DHT22;40108;53.152;5.844;2023-07-31T15:53:39;19.20;93.70
54202;DHT22;40108;53.152;5.844;2023-07-31T15:56:05;19.20;93.70
54202;DHT22;40108;53.152;5.844;2023-07-31T15:58:31;19.30;93.60
54202;DHT22;40108;53.152;5.844;2023-07-31T16:00:58;19.20;93.50
54202;DHT22;40108;53.152;5.844;2023-07-31T16:03:23;19.20;93.30
54202;DHT22;40108;53.152;5.844;2023-07-31T16:05:49;19.20;93.30
54202;DHT22;40108;53.152;5.844;2023-07-31T16:08:15;19.30;93.20
54202;DHT22;40108;53.152;5.844;2023-07-31T16:10:41;19.30;93.10
54202;DHT22;40108;53.152;5.844;2023-07-31T16:13:07;19.30;93.00